createdAt,value
2023-03-19T00:00:40.135Z,64.35
2023-03-19T00:03:07.303Z,65.12
2023-03-19T00:05:34.623Z,64.75
2023-03-19T00:08:01.905Z,64.11
2023-03-19T00:10:28.976Z,65.02
2023-03-19T00:12:56.836Z,64.42
2023-03-19T00:15:24.004Z,64.90
2023-03-19T00:17:51.828Z,65.67
2023-03-19T00:20:20.492Z,66.41
2023-03-19T00:22:47.704Z,65.74
2023-03-19T00:25:15.258Z,67.31
2023-03-19T00:27:43.035Z,68.81
2023-03-19T00:30:11.488Z,69.04
2023-03-19T00:32:39.680Z,68.57
2023-03-19T00:35:08.488Z,67.91
2023-03-19T00:37:36.510Z,69.85
2023-03-19T00:40:12.861Z,70.78
2023-03-19T00:42:39.920Z,71.29
2023-03-19T00:45:07.706Z,70.55
2023-03-19T00:47:35.153Z,69.96
2023-03-19T00:50:03.021Z,70.25
2023-03-19T00:52:30.506Z,70.18
2023-03-19T00:54:57.545Z,70.73
2023-03-19T00:57:24.734Z,70.84
2023-03-19T00:59:51.936Z,70.65
2023-03-19T01:02:18.961Z,70.38
2023-03-19T01:04:49.294Z,70.72
2023-03-19T01:07:16.519Z,71.06
2023-03-19T01:09:43.698Z,71.55
2023-03-19T01:12:11.059Z,70.71
2023-03-19T01:14:38.093Z,70.49
2023-03-19T01:17:05.543Z,70.08
2023-03-19T01:19:33.109Z,69.57
2023-03-19T01:22:00.269Z,69.79
2023-03-19T01:24:32.082Z,69.52
2023-03-19T01:26:59.169Z,69.80
2023-03-19T01:29:34.083Z,70.09
2023-03-19T01:32:09.903Z,69.77
2023-03-19T01:35:09.810Z,69.31
2023-03-19T01:37:37.621Z,70.17
2023-03-19T01:40:06.140Z,70.65
2023-03-19T01:42:34.066Z,69.18
2023-03-19T01:45:36.377Z,72.48
2023-03-19T01:48:48.622Z,74.39
2023-03-19T01:51:23.496Z,74.66
2023-03-19T01:54:12.420Z,74.39
2023-03-19T01:57:10.894Z,73.76
2023-03-19T02:00:02.046Z,73.03
2023-03-19T02:02:47.701Z,72.99
2023-03-19T02:05:45.674Z,72.71
2023-03-19T02:08:16.773Z,72.54
2023-03-19T02:10:47.806Z,70.99
2023-03-19T02:13:15.917Z,72.32
2023-03-19T02:15:43.443Z,72.46
2023-03-19T02:18:10.972Z,74.32
2023-03-19T02:24:02.678Z,74.50
2023-03-19T02:26:52.536Z,75.78
2023-03-19T02:29:19.691Z,76.85
2023-03-19T02:31:47.443Z,77.82
2023-03-19T02:34:14.525Z,77.89
2023-03-19T02:36:48.468Z,77.61
2023-03-19T02:39:27.640Z,77.72
2023-03-19T02:41:56.585Z,77.71
2023-03-19T02:44:26.660Z,79.76
2023-03-19T02:46:53.895Z,79.73
2023-03-19T02:49:21.015Z,79.66
2023-03-19T02:51:49.453Z,78.97
2023-03-19T02:54:16.643Z,78.96
2023-03-19T02:56:43.837Z,78.39
2023-03-19T02:59:10.961Z,77.97
2023-03-19T03:01:38.260Z,78.25
2023-03-19T03:04:06.002Z,78.66
2023-03-19T03:06:33.149Z,78.51
2023-03-19T03:09:02.334Z,78.90
2023-03-19T03:11:29.505Z,78.52
2023-03-19T03:13:56.576Z,78.63
2023-03-19T03:16:24.359Z,78.54
2023-03-19T03:18:51.535Z,77.87
2023-03-19T03:21:21.548Z,78.26
2023-03-19T03:23:48.958Z,78.06
2023-03-19T03:26:15.998Z,78.09
2023-03-19T03:28:43.577Z,78.26
2023-03-19T03:31:10.684Z,78.67
2023-03-19T03:33:39.866Z,78.59
2023-03-19T03:36:07.328Z,78.37
2023-03-19T03:38:34.830Z,79.01
2023-03-19T03:41:01.812Z,79.27
2023-03-19T03:43:29.108Z,79.97
2023-03-19T03:45:56.160Z,79.99
2023-03-19T03:48:23.870Z,80.62
2023-03-19T03:50:51.790Z,80.23
2023-03-19T03:53:23.541Z,79.93
2023-03-19T03:55:51.354Z,79.79
2023-03-19T03:58:21.649Z,79.62
2023-03-19T04:00:48.682Z,79.16
2023-03-19T04:03:15.994Z,80.57
2023-03-19T04:05:44.798Z,80.02
2023-03-19T04:08:12.357Z,80.92
2023-03-19T04:10:42.518Z,81.12
2023-03-19T04:13:10.349Z,82.28
2023-03-19T04:15:38.776Z,82.50
2023-03-19T04:18:06.495Z,82.31
2023-03-19T04:20:33.714Z,82.07
2023-03-19T04:23:02.224Z,82.47
2023-03-19T04:25:30.014Z,82.28
2023-03-19T04:27:58.301Z,81.77
2023-03-19T04:30:27.898Z,80.94
2023-03-19T04:32:55.545Z,81.39
2023-03-19T04:35:23.183Z,80.79
2023-03-19T04:37:50.181Z,80.31
2023-03-19T04:40:19.492Z,80.52
2023-03-19T04:42:47.637Z,80.41
2023-03-19T04:45:26.509Z,80.88
2023-03-19T04:47:54.126Z,81.49
2023-03-19T04:50:21.307Z,81.13
2023-03-19T04:52:48.459Z,81.06
2023-03-19T04:55:16.079Z,81.01
2023-03-19T04:57:50.956Z,80.67
2023-03-19T05:00:20.691Z,80.64
2023-03-19T05:02:48.594Z,79.92
2023-03-19T05:05:16.157Z,80.14
2023-03-19T05:07:44.446Z,79.77
2023-03-19T05:10:12.265Z,80.09
2023-03-19T05:12:40.041Z,79.96
2023-03-19T05:15:08.463Z,80.39
2023-03-19T05:17:39.046Z,79.69
2023-03-19T05:20:28.644Z,79.05
2023-03-19T05:23:01.865Z,78.80
2023-03-19T05:25:54.962Z,79.06
2023-03-19T05:28:40.221Z,79.47
2023-03-19T05:31:07.322Z,79.76
2023-03-19T05:33:42.045Z,79.47
2023-03-19T05:36:09.791Z,79.32
2023-03-19T05:38:49.352Z,78.76
2023-03-19T05:41:23.939Z,79.08
2023-03-19T05:43:59.357Z,78.12
2023-03-19T05:46:55.987Z,79.64
2023-03-19T05:49:26.083Z,78.89
2023-03-19T05:51:53.149Z,78.16
2023-03-19T05:54:20.922Z,78.05
2023-03-19T05:56:57.498Z,79.54
2023-03-19T05:59:44.242Z,79.53
2023-03-19T06:02:44.811Z,78.69
2023-03-19T06:05:27.270Z,78.70
2023-03-19T06:07:58.506Z,78.72
2023-03-19T06:10:48.755Z,79.71
2023-03-19T06:13:16.068Z,79.66
2023-03-19T06:15:50.525Z,79.43
2023-03-19T06:18:36.752Z,79.53
2023-03-19T06:21:14.199Z,79.39
2023-03-19T06:23:41.363Z,79.33
2023-03-19T06:26:10.861Z,78.72
2023-03-19T06:28:47.399Z,77.99
2023-03-19T06:31:15.936Z,77.25
2023-03-19T06:34:02.279Z,76.38
2023-03-19T06:36:38.209Z,77.29
2023-03-19T06:39:05.684Z,76.86
2023-03-19T06:41:32.739Z,76.91
2023-03-19T06:44:11.519Z,76.65
2023-03-19T06:46:38.944Z,76.60
2023-03-19T06:49:07.187Z,76.34
2023-03-19T06:51:34.499Z,76.63
2023-03-19T06:54:01.650Z,76.89
2023-03-19T06:56:29.755Z,77.04
2023-03-19T06:58:56.749Z,77.65
2023-03-19T07:01:24.102Z,77.47
2023-03-19T07:03:51.490Z,77.23
2023-03-19T07:06:18.626Z,75.61
2023-03-19T07:08:46.654Z,75.12
2023-03-19T07:11:15.158Z,74.83
2023-03-19T07:13:42.528Z,74.48
2023-03-19T07:16:09.763Z,74.46
2023-03-19T07:18:36.751Z,74.67
2023-03-19T07:21:04.146Z,75.02
2023-03-19T07:23:31.137Z,74.79
2023-03-19T07:25:58.849Z,74.50
2023-03-19T07:28:26.084Z,74.26
2023-03-19T07:30:53.744Z,77.82
2023-03-19T07:33:22.079Z,75.05
2023-03-19T07:35:49.297Z,76.61
2023-03-19T07:38:16.832Z,76.57
2023-03-19T07:40:54.973Z,79.09
2023-03-19T07:43:26.345Z,78.33
2023-03-19T07:45:53.580Z,77.63
2023-03-19T07:48:21.096Z,76.49
2023-03-19T07:50:51.394Z,75.20
2023-03-19T07:53:18.745Z,74.52
2023-03-19T07:55:45.883Z,75.50
2023-03-19T07:58:13.405Z,74.52
2023-03-19T08:00:40.617Z,73.28
2023-03-19T08:03:07.692Z,72.35
2023-03-19T08:05:34.694Z,75.73
2023-03-19T08:08:01.954Z,78.34
2023-03-19T08:10:29.241Z,77.84
2023-03-19T08:12:56.788Z,74.42
2023-03-19T08:15:23.913Z,73.94
2023-03-19T08:18:03.604Z,74.35
2023-03-19T08:20:31.063Z,73.81
2023-03-19T08:22:58.417Z,75.90
2023-03-19T08:25:27.222Z,75.30
2023-03-19T08:27:54.550Z,71.02
2023-03-19T08:30:21.704Z,72.14
2023-03-19T08:32:49.543Z,74.10
2023-03-19T08:35:17.101Z,71.25
2023-03-19T08:37:44.155Z,71.14
2023-03-19T08:40:12.038Z,71.02
2023-03-19T08:42:45.002Z,69.31
2023-03-19T08:45:14.153Z,67.12
2023-03-19T08:47:42.375Z,70.47
2023-03-19T08:50:10.181Z,68.29
2023-03-19T08:52:37.935Z,67.45
2023-03-19T08:55:05.666Z,67.54
2023-03-19T08:57:36.181Z,63.72
2023-03-19T09:00:06.353Z,61.37
2023-03-19T09:02:34.215Z,61.44
2023-03-19T09:05:02.265Z,62.10
2023-03-19T09:07:33.976Z,62.35
2023-03-19T09:10:02.817Z,63.03
2023-03-19T09:12:30.078Z,62.58
2023-03-19T09:14:57.350Z,60.67
2023-03-19T09:17:24.678Z,61.95
2023-03-19T09:19:51.731Z,63.19
2023-03-19T09:22:18.714Z,60.98
2023-03-19T09:24:45.962Z,58.62
2023-03-19T09:27:13.173Z,60.80
2023-03-19T09:29:43.412Z,60.18
2023-03-19T09:32:10.589Z,61.27
2023-03-19T09:34:37.823Z,60.79
2023-03-19T09:37:04.948Z,60.21
2023-03-19T09:39:32.836Z,60.92
2023-03-19T09:42:15.532Z,62.04
2023-03-19T09:44:47.300Z,56.32
2023-03-19T09:47:26.418Z,61.13
2023-03-19T09:49:59.532Z,58.98
2023-03-19T09:52:49.789Z,61.37
2023-03-19T09:55:31.864Z,57.63
2023-03-19T09:58:01.048Z,60.36
2023-03-19T10:00:32.880Z,59.77
2023-03-19T10:03:30.202Z,56.93
2023-03-19T10:06:18.350Z,59.46
2023-03-19T10:09:12.149Z,57.57
2023-03-19T10:11:59.733Z,53.46
2023-03-19T10:14:47.367Z,56.30
2023-03-19T10:17:22.409Z,52.69
2023-03-19T10:19:57.558Z,49.41
2023-03-19T10:22:36.206Z,50.65
2023-03-19T10:25:06.834Z,50.86
2023-03-19T10:27:33.883Z,52.05
2023-03-19T10:30:01.005Z,51.66
2023-03-19T10:32:44.374Z,48.74
2023-03-19T10:35:25.057Z,51.16
2023-03-19T10:37:52.382Z,45.94
2023-03-19T10:40:52.554Z,50.02
2023-03-19T10:43:26.713Z,50.97
2023-03-19T10:45:54.607Z,47.31
2023-03-19T10:48:28.139Z,46.35
2023-03-19T10:51:06.288Z,45.00
2023-03-19T10:53:38.583Z,46.62
2023-03-19T10:56:19.994Z,46.10
2023-03-19T10:58:57.779Z,45.03
2023-03-19T11:01:39.377Z,46.28
2023-03-19T11:04:19.937Z,44.16
2023-03-19T11:06:52.226Z,48.69
2023-03-19T11:09:38.752Z,44.63
2023-03-19T11:12:34.113Z,45.73
2023-03-19T11:15:07.696Z,45.13
2023-03-19T11:17:49.690Z,46.92
2023-03-19T11:20:33.910Z,49.00
2023-03-19T11:23:07.798Z,49.00
2023-03-19T11:25:42.316Z,43.42
2023-03-19T11:28:14.535Z,46.84
2023-03-19T11:31:10.994Z,43.01
2023-03-19T11:34:11.925Z,48.16
2023-03-19T11:37:02.093Z,42.26
2023-03-19T11:39:30.864Z,46.72
2023-03-19T11:42:35.172Z,47.78
2023-03-19T11:45:26.198Z,43.39
2023-03-19T11:48:08.493Z,41.62
2023-03-19T11:50:51.424Z,42.59
2023-03-19T11:53:39.943Z,48.25
2023-03-19T11:56:30.048Z,44.33
2023-03-19T11:59:10.295Z,44.67
2023-03-19T12:01:58.725Z,43.81
2023-03-19T12:04:44.013Z,42.07
2023-03-19T12:07:17.207Z,42.38
2023-03-19T12:10:26.269Z,44.84
2023-03-19T12:13:45.841Z,40.72
2023-03-19T12:16:21.599Z,41.09
2023-03-19T12:18:56.739Z,42.11
2023-03-19T12:21:44.949Z,43.25
2023-03-19T12:24:28.703Z,42.32
2023-03-19T12:27:27.621Z,42.60
2023-03-19T12:30:15.976Z,38.37
2023-03-19T12:32:54.316Z,36.43
2023-03-19T12:35:29.945Z,36.63
2023-03-19T12:38:05.707Z,40.10
2023-03-19T12:40:38.837Z,40.64
2023-03-19T12:43:30.707Z,38.66
2023-03-19T12:46:38.523Z,36.33
2023-03-19T12:49:15.692Z,38.32
2023-03-19T12:51:49.776Z,39.18
2023-03-19T12:54:42.079Z,38.40
2023-03-19T12:57:18.664Z,35.46
2023-03-19T12:59:45.770Z,37.56
2023-03-19T13:02:57.819Z,37.78
2023-03-19T13:05:53.198Z,38.00
2023-03-19T13:08:40.375Z,35.61
2023-03-19T13:11:26.795Z,39.72
2023-03-19T13:14:12.209Z,39.60
2023-03-19T13:16:46.533Z,38.87
2023-03-19T13:19:30.467Z,38.02
2023-03-19T13:22:03.305Z,34.63
2023-03-19T13:24:38.883Z,38.17
2023-03-19T13:27:11.128Z,37.56
2023-03-19T13:29:52.338Z,38.62
2023-03-19T13:32:36.081Z,37.88
2023-03-19T13:35:24.505Z,37.29
2023-03-19T13:37:59.480Z,38.16
2023-03-19T13:40:41.667Z,38.84
2023-03-19T13:43:30.174Z,40.21
2023-03-19T13:46:12.550Z,39.11
2023-03-19T13:48:51.138Z,34.47
2023-03-19T13:51:21.935Z,35.89
2023-03-19T13:54:01.521Z,35.91
2023-03-19T13:56:30.603Z,36.64
2023-03-19T13:59:25.449Z,38.45
2023-03-19T14:01:52.880Z,37.71
2023-03-19T14:04:21.528Z,38.70
2023-03-19T14:06:56.254Z,37.84
2023-03-19T14:09:43.602Z,35.61
2023-03-19T14:12:20.399Z,35.31
2023-03-19T14:14:57.403Z,34.84
2023-03-19T14:17:51.668Z,34.78
2023-03-19T14:20:24.013Z,34.36
2023-03-19T14:22:58.220Z,35.65
2023-03-19T14:25:57.148Z,34.44
2023-03-19T14:28:52.838Z,33.87
2023-03-19T14:31:32.040Z,34.62
2023-03-19T14:34:11.556Z,34.97
2023-03-19T14:36:44.764Z,35.77
2023-03-19T14:39:24.607Z,37.31
2023-03-19T14:42:01.567Z,36.66
2023-03-19T14:45:18.463Z,35.85
2023-03-19T14:48:12.741Z,35.67
2023-03-19T14:51:14.064Z,35.72
2023-03-19T14:53:52.333Z,35.89
2023-03-19T14:56:25.712Z,35.75
2023-03-19T14:58:57.802Z,35.94
2023-03-19T15:01:29.746Z,34.42
2023-03-19T15:04:00.968Z,35.03
2023-03-19T15:06:33.971Z,34.55
2023-03-19T15:09:02.768Z,35.06
2023-03-19T15:11:48.349Z,36.09
2023-03-19T15:14:24.366Z,37.58
2023-03-19T15:17:22.388Z,38.56
2023-03-19T15:19:50.258Z,38.63
2023-03-19T15:22:21.683Z,38.51
2023-03-19T15:24:48.979Z,39.37
2023-03-19T15:27:27.400Z,39.16
2023-03-19T15:30:02.528Z,38.29
2023-03-19T15:33:09.021Z,39.57
2023-03-19T15:35:33.303Z,40.08
2023-03-19T15:38:12.518Z,40.71
2023-03-19T15:40:41.677Z,40.84
2023-03-19T15:43:13.119Z,41.28
2023-03-19T15:45:46.429Z,40.84
2023-03-19T15:48:16.827Z,40.92
2023-03-19T15:50:46.911Z,41.67
2023-03-19T15:53:19.560Z,41.64
2023-03-19T15:55:50.278Z,42.16
2023-03-19T15:58:22.490Z,42.47
2023-03-19T16:00:54.887Z,42.96
2023-03-19T16:03:38.490Z,43.19
2023-03-19T16:06:08.365Z,43.69
2023-03-19T16:08:35.642Z,43.53
2023-03-19T16:11:28.545Z,43.69
2023-03-19T16:14:02.054Z,44.37
2023-03-19T16:16:32.964Z,44.11
2023-03-19T16:18:59.973Z,44.16
2023-03-19T16:21:41.627Z,44.98
2023-03-19T16:24:08.593Z,46.31
2023-03-19T16:26:44.651Z,46.56
2023-03-19T16:29:25.697Z,47.08
2023-03-19T16:31:58.765Z,47.20
2023-03-19T16:34:36.274Z,46.84
2023-03-19T16:37:26.322Z,47.29
2023-03-19T16:39:59.064Z,47.75
2023-03-19T16:42:36.977Z,47.94
2023-03-19T16:45:18.923Z,48.57
2023-03-19T16:47:51.458Z,49.06
2023-03-19T16:50:21.578Z,48.33
2023-03-19T16:52:49.731Z,49.13
2023-03-19T16:55:28.863Z,49.23
2023-03-19T16:58:16.506Z,49.96
2023-03-19T17:00:44.963Z,49.91
2023-03-19T17:03:17.579Z,49.93
2023-03-19T17:05:46.800Z,50.67
2023-03-19T17:08:14.462Z,51.32
2023-03-19T17:10:46.017Z,51.66
2023-03-19T17:13:23.462Z,52.16
2023-03-19T17:15:51.623Z,52.12
2023-03-19T17:18:21.202Z,52.52
2023-03-19T17:20:52.745Z,53.09
2023-03-19T17:23:20.147Z,53.12
2023-03-19T17:25:47.517Z,52.73
2023-03-19T17:28:14.630Z,52.40
2023-03-19T17:30:42.034Z,52.62
2023-03-19T17:33:23.250Z,52.95
2023-03-19T17:35:51.489Z,53.24
2023-03-19T17:38:19.465Z,53.86
2023-03-19T17:40:47.818Z,55.80
2023-03-19T17:43:15.619Z,55.87
2023-03-19T17:45:46.807Z,56.41
2023-03-19T17:48:24.158Z,56.04
2023-03-19T17:50:51.820Z,55.64
2023-03-19T17:53:19.112Z,55.63
2023-03-19T17:55:47.039Z,57.46
2023-03-19T17:58:20.191Z,57.19
2023-03-19T18:00:49.677Z,56.73
2023-03-19T18:03:19.847Z,56.75
2023-03-19T18:05:47.174Z,56.91
2023-03-19T18:08:16.946Z,56.40
2023-03-19T18:10:44.131Z,55.95
2023-03-19T18:13:12.130Z,56.10
2023-03-19T18:15:41.690Z,55.86
2023-03-19T18:18:15.938Z,55.93
2023-03-19T18:20:43.245Z,56.00
2023-03-19T18:23:11.983Z,56.53
2023-03-19T18:25:39.560Z,57.23
2023-03-19T18:28:06.811Z,57.35
2023-03-19T18:30:36.178Z,56.79
2023-03-19T18:33:07.515Z,56.95
2023-03-19T18:35:39.150Z,57.01
2023-03-19T18:38:14.401Z,57.51
2023-03-19T18:40:41.613Z,57.48
2023-03-19T18:43:10.766Z,56.94
2023-03-19T18:45:40.050Z,57.01
2023-03-19T18:48:16.842Z,57.53
2023-03-19T18:50:44.144Z,56.97
2023-03-19T18:53:11.607Z,57.04
2023-03-19T18:55:38.960Z,57.12
2023-03-19T18:58:06.679Z,57.28
2023-03-19T19:00:36.186Z,57.25
2023-03-19T19:03:05.433Z,57.08
2023-03-19T19:05:33.684Z,57.04
2023-03-19T19:08:02.833Z,57.00
2023-03-19T19:10:36.927Z,56.72
2023-03-19T19:13:04.333Z,56.33
2023-03-19T19:15:36.645Z,57.04
2023-03-19T19:18:15.217Z,57.30
2023-03-19T19:20:42.468Z,57.49
2023-03-19T19:23:10.739Z,58.30
2023-03-19T19:25:38.774Z,57.99
2023-03-19T19:28:21.294Z,58.76
2023-03-19T19:30:49.788Z,59.39
2023-03-19T19:33:36.828Z,60.17
2023-03-19T19:36:04.660Z,59.71
2023-03-19T19:38:31.863Z,59.31
2023-03-19T19:41:00.657Z,59.55
2023-03-19T19:43:31.226Z,59.30
2023-03-19T19:45:59.136Z,59.19
2023-03-19T19:48:28.809Z,59.50
2023-03-19T19:51:04.277Z,59.16
2023-03-19T19:53:31.480Z,59.26
2023-03-19T19:55:58.697Z,59.50
2023-03-19T19:58:31.166Z,59.20
2023-03-19T20:01:03.740Z,58.96
2023-03-19T20:03:34.137Z,59.40
2023-03-19T20:06:02.108Z,59.54
2023-03-19T20:08:30.095Z,59.00
2023-03-19T20:10:57.624Z,59.16
2023-03-19T20:13:38.044Z,59.60
2023-03-19T20:16:06.085Z,59.73
2023-03-19T20:18:35.946Z,59.43
2023-03-19T20:21:04.398Z,58.66
2023-03-19T20:23:32.225Z,58.67
2023-03-19T20:25:59.883Z,58.84
2023-03-19T20:28:34.361Z,58.65
2023-03-19T20:31:03.979Z,58.65
2023-03-19T20:33:31.744Z,58.42
2023-03-19T20:35:59.088Z,58.53
2023-03-19T20:38:27.633Z,58.50
2023-03-19T20:40:57.536Z,58.49
2023-03-19T20:43:35.983Z,58.84
2023-03-19T20:46:06.037Z,58.34
2023-03-19T20:48:34.423Z,58.30
2023-03-19T20:51:02.580Z,58.42
2023-03-19T20:53:30.034Z,58.34
2023-03-19T20:55:57.671Z,58.39
2023-03-19T20:58:35.027Z,58.75
2023-03-19T21:01:03.310Z,58.64
2023-03-19T21:03:31.941Z,58.64
2023-03-19T21:06:02.263Z,58.42
2023-03-19T21:08:37.893Z,58.79
2023-03-19T21:11:05.734Z,58.74
2023-03-19T21:13:32.820Z,58.54
2023-03-19T21:16:00.296Z,58.90
2023-03-19T21:18:27.572Z,58.74
2023-03-19T21:20:57.207Z,58.65
2023-03-19T21:23:37.393Z,58.76
2023-03-19T21:26:15.417Z,58.36
2023-03-19T21:28:43.721Z,59.27
2023-03-19T21:31:20.768Z,59.58
2023-03-19T21:33:49.840Z,59.63
2023-03-19T21:36:17.632Z,59.42
2023-03-19T21:38:45.062Z,59.36
2023-03-19T21:41:26.552Z,59.75
2023-03-19T21:43:57.531Z,60.40
2023-03-19T21:46:27.834Z,60.16
2023-03-19T21:48:56.470Z,60.64
2023-03-19T21:51:25.376Z,60.44
2023-03-19T21:53:52.706Z,60.31
2023-03-19T21:56:33.523Z,60.59
2023-03-19T21:59:04.157Z,60.58
2023-03-19T22:01:31.375Z,60.48
2023-03-19T22:03:58.883Z,60.23
2023-03-19T22:06:26.099Z,60.34
2023-03-19T22:08:56.385Z,60.20
2023-03-19T22:11:30.571Z,60.22
2023-03-19T22:14:34.909Z,60.28
2023-03-19T22:17:02.102Z,60.42
2023-03-19T22:19:29.378Z,60.28
2023-03-19T22:21:56.510Z,59.96
2023-03-19T22:24:23.680Z,60.40
2023-03-19T22:26:56.686Z,60.98
2023-03-19T22:29:25.784Z,60.90
2023-03-19T22:31:54.603Z,61.13
2023-03-19T22:34:25.028Z,60.95
2023-03-19T22:36:52.172Z,61.29
2023-03-19T22:39:19.407Z,61.32
2023-03-19T22:41:48.505Z,61.68
2023-03-19T22:44:31.353Z,60.77
2023-03-19T22:47:00.971Z,61.00
2023-03-19T22:49:30.120Z,61.62
2023-03-19T22:51:58.423Z,60.78
2023-03-19T22:54:26.142Z,60.95
2023-03-19T22:56:53.344Z,60.73
2023-03-19T22:59:20.572Z,60.99
2023-03-19T23:01:48.163Z,61.23
2023-03-19T23:04:20.954Z,60.87
2023-03-19T23:06:48.757Z,60.78
2023-03-19T23:09:19.234Z,61.03
2023-03-19T23:11:48.392Z,61.11
2023-03-19T23:14:28.517Z,60.81
2023-03-19T23:17:02.133Z,60.85
2023-03-19T23:19:35.077Z,61.00
2023-03-19T23:22:04.948Z,61.15
2023-03-19T23:24:32.491Z,61.33
2023-03-19T23:27:01.107Z,61.56
2023-03-19T23:29:39.932Z,61.12
2023-03-19T23:32:08.323Z,61.34
2023-03-19T23:34:45.793Z,61.37
2023-03-19T23:37:22.671Z,61.08
2023-03-19T23:39:50.019Z,61.35
2023-03-19T23:42:27.780Z,61.09
2023-03-19T23:44:58.153Z,61.59
2023-03-19T23:47:25.597Z,61.81
2023-03-19T23:49:52.765Z,61.86
2023-03-19T23:52:19.671Z,61.93
2023-03-19T23:54:46.840Z,61.15
2023-03-19T23:57:15.879Z,61.50
2023-03-19T23:59:45.472Z,61.56
